Time;durP1;ratioP1;P1;durP2;ratioP2;P2;SDS_P1;SDS_P2;PMS_P1;PMS_P2;Temp;Humidity;BMP_temperature;BMP_pressure;BME280_temperature;BME280_humidity;BME280_pressure;Samples;Min_cycle;Max_cycle;Signal;HPM_P1;HPM_P2
2023/08/13 00:00:46;;;;;;;9.77;4.67;;;;;;;19.68;81.73;100666.81;5037218;28;20291;-55
2023/08/13 00:03:17;;;;;;;9.50;5.03;;;;;;;19.79;80.77;100669.84;5033903;28;20309;-58
2023/08/13 00:05:50;;;;;;;10.43;5.03;;;;;;;19.38;80.67;100590.47;5045288;28;20384;-57
2023/08/13 00:08:20;;;;;;;7.97;4.97;;;;;;;19.97;78.74;100667.22;5037787;28;20747;-58
2023/08/13 00:10:51;;;;;;;12.93;5.83;;;;;;;20.11;80.47;100664.72;5038574;28;20291;-57
2023/08/13 00:13:21;;;;;;;11.87;5.33;;;;;;;20.20;81.93;100668.72;4998381;28;20394;-57
2023/08/13 00:15:52;;;;;;;10.83;6.07;;;;;;;20.17;78.89;100669.75;5000583;28;20350;-56
2023/08/13 00:18:22;;;;;;;11.57;5.20;;;;;;;20.22;78.61;100662.41;5008138;28;20264;-58
2023/08/13 00:20:55;;;;;;;9.13;5.43;;;;;;;20.23;80.13;100668.56;4999565;28;20786;-57
2023/08/13 00:23:25;;;;;;;7.63;5.10;;;;;;;20.17;78.59;100669.75;4988328;28;20585;-56
2023/08/13 00:25:56;;;;;;;9.73;4.23;;;;;;;19.98;75.87;100663.63;5003507;28;20819;-57
2023/08/13 00:28:27;;;;;;;16.57;5.40;;;;;;;20.03;78.35;100662.47;5015106;28;20280;-56
2023/08/13 00:30:57;;;;;;;9.17;4.37;;;;;;;20.17;77.81;100653.84;4997854;28;20299;-55
2023/08/13 00:33:28;;;;;;;9.10;5.47;;;;;;;20.35;77.24;100651.19;5007993;28;20280;-55
2023/08/13 00:36:00;;;;;;;11.07;6.07;;;;;;;20.44;77.83;100650.69;4998211;28;20451;-55
2023/08/13 00:38:30;;;;;;;8.17;5.37;;;;;;;20.52;77.62;100653.84;5007523;28;20296;-55
2023/08/13 00:41:01;;;;;;;8.23;5.20;;;;;;;20.74;77.97;100663.34;4997824;28;20280;-55
2023/08/13 00:43:31;;;;;;;11.30;5.13;;;;;;;20.89;75.61;100657.22;5008270;28;20272;-56
2023/08/13 00:46:02;;;;;;;11.30;5.60;;;;;;;20.91;77.81;100652.69;4997301;28;20654;-56
2023/08/13 00:48:33;;;;;;;11.27;4.90;;;;;;;21.06;75.05;100643.91;5007313;28;20280;-55
2023/08/13 00:51:05;;;;;;;9.60;5.23;;;;;;;21.19;73.07;100653.88;4999001;28;20276;-55
2023/08/13 00:53:45;;;;;;;9.17;5.43;;;;;;;21.27;73.17;100641.03;5024903;28;20675;-56
2023/08/13 00:56:16;;;;;;;7.10;5.38;;;;;;;21.31;73.05;100631.94;5001032;28;20303;-55
2023/08/13 00:58:47;;;;;;;7.43;5.00;;;;;;;21.48;71.75;100650.50;5022697;28;20056;-55
2023/08/13 01:01:17;;;;;;;10.17;5.20;;;;;;;21.31;74.54;100600.03;5006968;28;20291;-55
2023/08/13 01:03:48;;;;;;;9.57;5.20;;;;;;;21.51;72.47;100650.31;5047467;28;20290;-55
2023/08/13 01:06:27;;;;;;;8.70;4.80;;;;;;;21.49;72.13;100636.28;5036392;28;20328;-55
2023/08/13 01:09:03;;;;;;;;;;;;;;;21.59;71.68;100638.41;5037529;28;20329;-55
2023/08/13 01:11:42;;;;;;;9.40;5.27;;;;;;;21.70;71.99;100633.34;5031660;28;20051;-57
2023/08/13 01:14:21;;;;;;;8.55;5.13;;;;;;;21.60;71.22;100633.00;5017098;28;20570;-57
2023/08/13 01:16:53;;;;;;;8.05;5.07;;;;;;;21.72;71.92;100636.78;5023450;28;20073;-56
2023/08/13 01:19:25;;;;;;;11.63;5.60;;;;;;;21.79;72.76;100632.84;5027032;28;20541;-56
2023/08/13 01:21:57;;;;;;;12.80;5.70;;;;;;;21.51;69.56;100639.69;5016899;28;20053;-56
2023/08/13 01:24:29;;;;;;;10.33;5.83;;;;;;;21.45;70.43;100640.03;5026627;28;20402;-56
2023/08/13 01:27:17;;;;;;;10.60;5.27;;;;;;;21.61;72.60;100639.19;4997777;28;20383;-56
2023/08/13 01:29:54;;;;;;;8.33;5.07;;;;;;;21.83;73.56;100628.19;5007147;28;20284;-56
2023/08/13 01:32:30;;;;;;;8.87;5.50;;;;;;;21.75;70.03;100631.28;4978828;28;20363;-56
2023/08/13 01:35:01;;;;;;;8.73;4.97;;;;;;;21.81;70.78;100630.91;4996855;28;20288;-54
2023/08/13 01:37:32;;;;;;;8.67;4.87;;;;;;;21.81;69.15;100630.91;5006970;28;20565;-55
2023/08/13 01:40:04;;;;;;;8.87;4.30;;;;;;;21.79;71.35;100627.53;5016399;28;20295;-56
2023/08/13 01:42:35;;;;;;;9.70;4.73;;;;;;;21.91;70.66;100626.78;5017970;28;20310;-55
2023/08/13 01:45:07;;;;;;;10.07;5.47;;;;;;;21.69;68.38;100589.06;4996451;28;20411;-56
2023/08/13 01:47:37;;;;;;;8.73;4.97;;;;;;;22.12;70.04;100618.53;5006140;28;20142;-55
2023/08/13 01:50:08;;;;;;;8.00;5.00;;;;;;;22.21;69.16;100620.66;4996190;28;20338;-56
2023/08/13 01:52:39;;;;;;;10.87;4.33;;;;;;;22.14;68.36;100616.59;5006244;28;20134;-55
2023/08/13 01:55:12;;;;;;;10.70;4.97;;;;;;;22.22;68.69;100617.06;4996628;28;20284;-57
2023/08/13 01:57:42;;;;;;;10.60;4.60;;;;;;;22.32;68.29;100626.22;5021486;28;20055;-55
2023/08/13 02:00:13;;;;;;;8.27;4.70;;;;;;;22.47;69.97;100618.25;5018472;28;20072;-56
2023/08/13 02:02:44;;;;;;;9.40;5.37;;;;;;;22.64;69.45;100610.09;5042366;28;20083;-57
2023/08/13 02:05:14;;;;;;;8.57;4.70;;;;;;;22.37;65.53;100586.84;5036053;28;20052;-56
2023/08/13 02:07:45;;;;;;;10.13;4.20;;;;;;;22.45;67.06;100630.81;5029764;28;20041;-57
2023/08/13 02:10:17;;;;;;;11.67;4.33;;;;;;;22.17;67.56;100574.72;5005977;28;20124;-57
2023/08/13 02:12:51;;;;;;;7.33;4.17;;;;;;;22.38;68.10;100624.97;5005894;28;20045;-57
2023/08/13 02:15:21;;;;;;;6.33;4.03;;;;;;;22.36;68.31;100637.50;5009991;28;20036;-58
2023/08/13 02:17:54;;;;;;;8.30;3.87;;;;;;;22.44;66.87;100635.28;5013666;28;20131;-56
2023/08/13 02:20:25;;;;;;;11.30;4.00;;;;;;;22.47;66.64;100628.91;5023277;28;20064;-56
2023/08/13 02:22:56;;;;;;;7.23;3.90;;;;;;;22.40;66.27;100639.91;5013739;28;20124;-56
2023/08/13 02:25:28;;;;;;;9.27;3.70;;;;;;;22.31;65.58;100645.78;5023909;28;20131;-56
2023/08/13 02:27:58;;;;;;;7.33;3.87;;;;;;;22.34;68.34;100642.94;5001398;28;20464;-56
2023/08/13 02:30:29;;;;;;;8.03;3.60;;;;;;;22.39;66.78;100638.22;5005829;28;20110;-56
2023/08/13 02:32:59;;;;;;;8.87;3.57;;;;;;;22.38;64.28;100641.81;5013072;28;20139;-56
2023/08/13 02:35:30;;;;;;;7.70;4.03;;;;;;;22.29;65.18;100652.13;5008974;28;20058;-55
2023/08/13 02:38:01;;;;;;;8.53;3.07;;;;;;;22.32;66.11;100642.19;5007684;28;20541;-56
2023/08/13 02:40:33;;;;;;;9.33;3.20;;;;;;;22.28;62.78;100640.63;5017270;28;20048;-56
2023/08/13 02:43:04;;;;;;;9.93;3.60;;;;;;;22.21;64.81;100644.59;5014621;28;20253;-56
2023/08/13 02:45:35;;;;;;;8.50;3.80;;;;;;;22.31;66.27;100645.78;5013898;28;20049;-56
2023/08/13 02:48:06;;;;;;;8.43;3.23;;;;;;;22.49;66.08;100648.28;5005008;28;20517;-55
2023/08/13 02:50:36;;;;;;;7.00;2.90;;;;;;;22.48;64.70;100644.78;5016276;28;20065;-55
2023/08/13 02:53:07;;;;;;;7.30;3.13;;;;;;;22.62;66.39;100638.63;4998307;28;20045;-55
2023/08/13 02:55:39;;;;;;;8.47;3.13;;;;;;;22.57;65.52;100640.72;5019101;28;20073;-55
2023/08/13 02:58:09;;;;;;;10.43;3.10;;;;;;;22.34;65.95;100629.63;5009501;28;20530;-55
2023/08/13 03:00:40;;;;;;;14.50;2.97;;;;;;;22.39;64.87;100656.84;5019730;28;20456;-56
2023/08/13 03:03:10;;;;;;;9.17;3.30;;;;;;;22.27;64.46;100638.94;5001491;28;20156;-56
2023/08/13 03:05:41;;;;;;;6.20;2.80;;;;;;;22.35;64.61;100652.63;5010521;28;20057;-55
2023/08/13 03:08:11;;;;;;;6.80;2.93;;;;;;;22.46;64.45;100648.47;5008485;28;20361;-56
2023/08/13 03:10:44;;;;;;;6.90;3.03;;;;;;;22.51;64.60;100646.41;5008946;28;20060;-56
2023/08/13 03:13:14;;;;;;;9.70;3.33;;;;;;;22.39;62.87;100643.53;5014537;28;20139;-56
2023/08/13 03:15:45;;;;;;;8.47;2.60;;;;;;;22.45;65.46;100636.13;5016302;28;20126;-57
2023/08/13 03:18:15;;;;;;;7.07;2.70;;;;;;;22.37;65.41;100617.94;5034870;28;20427;-58
2023/08/13 03:20:46;;;;;;;8.20;2.77;;;;;;;22.41;63.77;100630.09;5034978;28;20075;-56
2023/08/13 03:23:16;;;;;;;6.80;2.80;;;;;;;22.24;62.12;100633.81;5011575;28;20041;-56
2023/08/13 03:25:48;;;;;;;12.60;3.00;;;;;;;22.20;65.90;100637.56;5023154;28;20045;-57
2023/08/13 03:28:22;;;;;;;8.47;2.70;;;;;;;22.15;63.94;100634.31;4994322;28;20069;-57
2023/08/13 03:30:58;;;;;;;8.87;2.80;;;;;;;22.16;63.15;100636.00;5023624;28;20048;-56
2023/08/13 03:33:29;;;;;;;8.07;2.53;;;;;;;22.33;65.82;100632.38;5000643;28;20311;-57
2023/08/13 03:36:00;;;;;;;10.10;2.80;;;;;;;22.54;64.03;100612.47;4977141;28;20058;-57
2023/08/13 03:38:30;;;;;;;7.37;2.60;;;;;;;22.51;63.14;100631.25;4996200;28;20045;-56
2023/08/13 03:41:02;;;;;;;7.40;3.03;;;;;;;22.51;63.25;100614.44;4987856;28;20490;-55
2023/08/13 03:43:33;;;;;;;7.40;2.50;;;;;;;22.51;63.73;100617.09;4993554;28;20137;-56
2023/08/13 03:46:04;;;;;;;8.43;2.70;;;;;;;22.60;64.68;100627.22;4998485;28;20053;-57
2023/08/13 03:48:35;;;;;;;7.60;2.63;;;;;;;22.57;62.03;100616.75;5009269;28;20045;-55
2023/08/13 03:51:05;;;;;;;11.47;3.73;;;;;;;22.66;62.84;100618.81;5012294;28;20087;-58
2023/08/13 03:53:36;;;;;;;11.93;2.70;;;;;;;22.88;64.32;100622.84;5024135;28;20144;-58
2023/08/13 03:56:09;;;;;;;7.53;2.40;;;;;;;23.01;61.31;100629.16;5012030;28;20057;-58
2023/08/13 03:58:40;;;;;;;8.67;3.23;;;;;;;22.98;62.32;100629.34;5021149;28;20049;-58
2023/08/13 04:01:10;;;;;;;11.27;3.20;;;;;;;22.98;61.06;100627.53;5013708;28;20037;-58
2023/08/13 04:03:41;;;;;;;6.23;2.43;;;;;;;23.00;57.03;100624.78;5023774;28;20132;-59
2023/08/13 04:06:11;;;;;;;7.23;2.50;;;;;;;23.13;59.60;100617.72;5007608;28;20050;-58
2023/08/13 04:08:42;;;;;;;11.80;5.37;;;;;;;23.09;58.57;100610.88;5023389;28;20080;-59
2023/08/13 04:11:14;;;;;;;3.70;1.90;;;;;;;23.11;50.27;100606.28;5014085;28;20400;-58
2023/08/13 04:13:44;;;;;;;6.87;1.90;;;;;;;23.24;50.88;100614.38;5015613;28;20051;-59
2023/08/13 04:16:15;;;;;;;6.30;1.80;;;;;;;23.28;49.45;100605.22;5006242;28;20049;-60
2023/08/13 04:18:45;;;;;;;3.10;1.93;;;;;;;23.35;48.97;100600.38;5016390;28;20049;-58
2023/08/13 04:21:16;;;;;;;4.60;2.20;;;;;;;23.40;48.17;100603.59;5007827;28;20041;-58
2023/08/13 04:23:46;;;;;;;3.33;1.83;;;;;;;23.37;48.23;100598.47;5007524;28;20544;-59
2023/08/13 04:26:18;;;;;;;3.77;2.03;;;;;;;23.44;49.61;100600.63;5005277;28;20048;-58
2023/08/13 04:28:49;;;;;;;4.23;1.87;;;;;;;23.57;48.89;100598.00;5015672;28;20138;-59
2023/08/13 04:31:20;;;;;;;2.37;1.73;;;;;;;23.60;48.45;100588.97;4998128;28;20052;-59
2023/08/13 04:33:50;;;;;;;3.13;1.70;;;;;;;23.73;48.43;100586.38;5015802;28;20180;-58
2023/08/13 04:36:21;;;;;;;5.40;1.90;;;;;;;23.77;47.50;100579.88;5013114;28;20033;-59
2023/08/13 04:38:52;;;;;;;2.97;1.70;;;;;;;23.66;47.16;100581.41;5020586;28;20048;-57
2023/08/13 04:41:26;;;;;;;6.67;2.60;;;;;;;23.67;48.19;100595.59;5023202;28;20060;-59
2023/08/13 04:43:57;;;;;;;4.10;1.80;;;;;;;23.69;46.21;100610.56;5003384;28;20064;-60
2023/08/13 04:46:28;;;;;;;4.43;2.10;;;;;;;23.54;48.44;100590.22;5017302;28;20111;-58
2023/08/13 04:48:59;;;;;;;3.57;1.90;;;;;;;23.61;48.68;100596.88;5001585;28;20050;-59
2023/08/13 04:51:29;;;;;;;3.43;2.60;;;;;;;23.54;46.32;100595.56;5011315;28;20052;-58
2023/08/13 04:54:00;;;;;;;3.13;2.00;;;;;;;23.55;47.68;100599.91;5004099;28;20797;-58
2023/08/13 04:56:32;;;;;;;2.83;1.90;;;;;;;23.73;47.02;100599.69;5017355;28;20519;-57
2023/08/13 04:59:02;;;;;;;4.00;2.17;;;;;;;23.85;47.15;100593.56;4999902;28;20057;-58
2023/08/13 05:01:33;;;;;;;7.30;2.20;;;;;;;23.89;46.55;100603.06;5014721;28;20049;-55
2023/08/13 05:04:03;;;;;;;3.07;1.90;;;;;;;23.82;46.37;100609.78;5011809;28;20037;-58
2023/08/13 05:06:34;;;;;;;2.80;1.80;;;;;;;23.85;45.47;100620.25;5016169;28;20486;-58
2023/08/13 05:09:06;;;;;;;3.97;2.23;;;;;;;23.82;46.12;100615.97;4996744;28;20123;-58
2023/08/13 05:11:38;;;;;;;3.87;2.10;;;;;;;23.91;47.87;100619.81;5004095;28;20116;-59
2023/08/13 05:14:09;;;;;;;4.90;2.30;;;;;;;24.04;45.46;100619.88;4993368;28;20496;-58
2023/08/13 05:16:40;;;;;;;3.43;1.90;;;;;;;24.03;44.79;100624.34;5003066;28;20144;-58
2023/08/13 05:19:10;;;;;;;3.37;1.90;;;;;;;24.16;43.58;100618.19;4993735;28;20744;-58
2023/08/13 05:21:41;;;;;;;3.17;1.97;;;;;;;24.18;42.36;100629.63;5002722;28;20421;-58
2023/08/13 05:24:11;;;;;;;4.27;1.80;;;;;;;24.22;43.70;100628.47;4995766;28;20641;-57
2023/08/13 05:26:43;;;;;;;4.63;2.40;;;;;;;24.22;44.94;100633.81;5022167;28;20076;-58
2023/08/13 05:29:17;;;;;;;7.63;3.30;;;;;;;23.92;52.19;100637.56;5006120;28;20509;-59
2023/08/13 05:31:48;;;;;;;10.03;2.80;;;;;;;23.89;55.00;100629.75;5016670;28;20038;-58
2023/08/13 05:34:18;;;;;;;8.13;2.17;;;;;;;23.89;55.66;100643.97;5012144;28;20061;-59
2023/08/13 05:36:49;;;;;;;3.00;1.60;;;;;;;23.96;50.80;100644.38;5014624;28;20144;-58
2023/08/13 05:39:19;;;;;;;8.67;2.40;;;;;;;24.05;53.10;100622.44;5012523;28;20084;-58
2023/08/13 05:41:52;;;;;;;6.77;2.40;;;;;;;23.72;55.85;100630.00;5017945;28;20255;-58
2023/08/13 05:44:23;;;;;;;5.97;2.20;;;;;;;23.39;56.50;100628.56;5008557;28;20045;-58
2023/08/13 05:46:54;;;;;;;10.17;2.83;;;;;;;22.99;58.41;100633.75;4997448;28;20445;-59
2023/08/13 05:49:24;;;;;;;7.57;2.40;;;;;;;22.76;57.30;100635.09;5018394;28;20141;-56
2023/08/13 05:51:55;;;;;;;6.13;2.43;;;;;;;22.65;59.49;100640.25;5000783;28;20376;-57
2023/08/13 05:54:25;;;;;;;5.03;2.40;;;;;;;22.57;60.68;100630.06;5029841;28;20416;-58
2023/08/13 05:56:58;;;;;;;8.83;4.37;;;;;;;22.50;60.94;100626.06;5018667;28;20044;-60
2023/08/13 05:59:28;;;;;;;7.13;3.03;;;;;;;22.64;60.11;100631.41;5033002;28;20033;-60
2023/08/13 06:01:59;;;;;;;9.30;2.90;;;;;;;22.67;60.63;100644.53;5043608;28;20172;-59
2023/08/13 06:04:30;;;;;;;4.13;2.47;;;;;;;22.52;60.41;100648.13;5051921;28;20127;-60
2023/08/13 06:07:00;;;;;;;9.70;2.20;;;;;;;22.42;61.11;100642.50;5042441;28;20041;-58
2023/08/13 06:09:32;;;;;;;11.67;2.80;;;;;;;22.23;61.79;100642.72;5034257;28;20041;-56
2023/08/13 06:12:04;;;;;;;11.07;3.10;;;;;;;22.11;61.75;100643.41;5019476;28;20051;-58
2023/08/13 06:14:34;;;;;;;11.60;2.63;;;;;;;21.97;62.21;100652.19;5021251;28;20051;-59
2023/08/13 06:17:05;;;;;;;8.77;2.60;;;;;;;21.84;63.39;100645.84;5037895;28;20037;-58
2023/08/13 06:19:44;;;;;;;12.13;3.17;;;;;;;21.78;63.60;100652.38;5053530;28;20045;-58
2023/08/13 06:22:15;;;;;;;6.83;2.30;;;;;;;21.70;64.23;100660.81;5020791;28;20052;-60
2023/08/13 06:24:49;;;;;;;6.20;2.70;;;;;;;21.68;64.40;100657.38;5017757;28;20503;-59
2023/08/13 06:27:22;;;;;;;10.57;2.73;;;;;;;21.68;63.53;100659.16;5013906;28;20272;-60
2023/08/13 06:29:52;;;;;;;8.47;2.80;;;;;;;21.59;64.56;100675.63;5005363;28;20128;-58
2023/08/13 06:32:38;;;;;;;7.20;2.70;;;;;;;21.45;64.88;100674.59;5007403;28;20613;-58
2023/08/13 06:35:09;;;;;;;8.47;2.60;;;;;;;21.36;63.88;100672.41;4989980;28;20287;-60
2023/08/13 06:37:40;;;;;;;10.70;2.70;;;;;;;21.11;65.27;100671.09;5001372;28;20343;-59
2023/08/13 06:40:30;;;;;;;13.97;2.50;;;;;;;21.07;65.86;100681.97;5004975;28;20279;-59
2023/08/13 06:43:02;;;;;;;6.37;2.50;;;;;;;21.07;67.40;100682.84;5009153;28;20310;-56
2023/08/13 06:45:33;;;;;;;10.20;2.43;;;;;;;21.11;67.10;100687.03;5020277;28;20276;-58
2023/08/13 06:48:04;;;;;;;10.67;2.50;;;;;;;21.01;65.63;100685.81;5010858;28;20387;-58
2023/08/13 06:50:34;;;;;;;6.20;2.00;;;;;;;20.95;67.45;100686.16;5020482;28;20370;-57
2023/08/13 06:53:05;;;;;;;7.23;2.70;;;;;;;20.94;66.44;100692.38;5010714;28;20803;-57
2023/08/13 06:55:35;;;;;;;8.73;2.37;;;;;;;20.93;66.08;100684.50;5020170;28;20295;-58
2023/08/13 06:58:08;;;;;;;9.43;2.23;;;;;;;20.73;66.45;100680.25;5010674;28;20370;-59
2023/08/13 07:00:39;;;;;;;8.40;2.40;;;;;;;20.83;66.60;100697.41;5014526;28;20280;-58
2023/08/13 07:03:11;;;;;;;4.30;2.27;;;;;;;20.67;66.70;100658.38;5003766;28;20287;-58
2023/08/13 07:05:42;;;;;;;11.20;2.10;;;;;;;20.83;66.93;100692.09;5020520;28;20398;-57
2023/08/13 07:08:13;;;;;;;7.10;2.17;;;;;;;20.98;66.85;100703.72;5010687;28;20338;-57
2023/08/13 07:10:43;;;;;;;12.20;2.57;;;;;;;21.00;65.52;100702.69;5020447;28;20276;-59
2023/08/13 07:13:15;;;;;;;5.97;2.23;;;;;;;20.87;65.55;100707.78;5008444;28;20300;-59
2023/08/13 07:15:46;;;;;;;3.17;1.27;;;;;;;20.96;56.26;100701.13;5021283;28;20396;-59
2023/08/13 07:18:17;;;;;;;3.17;1.40;;;;;;;20.95;52.27;100651.59;5005027;28;20276;-59
2023/08/13 07:20:47;;;;;;;2.17;1.10;;;;;;;21.34;50.40;100682.25;5020483;28;20315;-59
2023/08/13 07:23:18;;;;;;;6.03;1.40;;;;;;;21.42;52.79;100688.06;5014138;28;20315;-57
2023/08/13 07:25:49;;;;;;;4.20;1.20;;;;;;;21.40;51.10;100689.94;5022669;28;20377;-57
2023/08/13 07:28:21;;;;;;;4.60;1.50;;;;;;;21.35;49.78;100670.72;5020437;28;20366;-60
2023/08/13 07:30:52;;;;;;;3.20;1.10;;;;;;;21.44;48.68;100685.31;5030720;28;20321;-58
2023/08/13 07:33:22;;;;;;;3.90;1.50;;;;;;;21.36;48.69;100699.00;5034078;28;20366;-61
2023/08/13 07:35:53;;;;;;;3.83;1.40;;;;;;;21.26;48.55;100703.09;5020019;28;20302;-61
2023/08/13 07:38:24;;;;;;;5.60;1.30;;;;;;;21.24;49.15;100715.59;5029372;28;20594;-60
2023/08/13 07:40:55;;;;;;;1.67;0.90;;;;;;;21.37;47.23;100714.03;5023035;28;20311;-59
2023/08/13 07:43:27;;;;;;;3.73;1.47;;;;;;;21.25;47.51;100712.03;5035331;28;20272;-58
2023/08/13 07:45:58;;;;;;;5.17;1.30;;;;;;;21.15;45.95;100716.13;5020418;28;20656;-60
2023/08/13 07:48:28;;;;;;;6.50;1.37;;;;;;;21.07;45.23;100720.03;5023028;28;20657;-59
2023/08/13 07:50:59;;;;;;;3.17;0.90;;;;;;;21.02;44.93;100722.06;5017425;28;20281;-59
2023/08/13 07:53:31;;;;;;;3.57;1.40;;;;;;;21.01;43.94;100720.34;5016732;28;20264;-59
2023/08/13 07:56:02;;;;;;;1.60;1.07;;;;;;;20.98;44.43;100731.13;5020028;28;20727;-58
2023/08/13 07:58:34;;;;;;;8.23;1.60;;;;;;;20.95;50.89;100720.69;5023562;28;20282;-59
2023/08/13 08:01:05;;;;;;;7.07;1.80;;;;;;;20.75;55.88;100723.50;5012109;28;20283;-59
2023/08/13 08:03:36;;;;;;;5.17;1.60;;;;;;;20.67;56.04;100727.41;5019620;28;20291;-58
2023/08/13 08:06:07;;;;;;;5.73;1.90;;;;;;;20.45;59.43;100724.09;5006166;28;20299;-57
2023/08/13 08:08:37;;;;;;;9.90;2.17;;;;;;;19.98;61.67;100698.09;5018065;28;20311;-58
2023/08/13 08:11:08;;;;;;;17.30;2.53;;;;;;;19.75;63.00;100726.59;5005999;28;20747;-58
2023/08/13 08:13:40;;;;;;;9.33;1.90;;;;;;;19.25;63.67;100694.47;5015608;28;20292;-59
2023/08/13 08:16:10;;;;;;;7.60;2.10;;;;;;;19.13;63.69;100744.41;5002460;28;20322;-58
2023/08/13 08:18:41;;;;;;;9.30;1.77;;;;;;;18.96;66.29;100737.19;5021326;28;20746;-58
2023/08/13 08:21:13;;;;;;;5.17;2.00;;;;;;;18.72;68.74;100735.56;5010158;28;20353;-58
2023/08/13 08:23:43;;;;;;;7.50;2.10;;;;;;;18.51;70.54;100740.84;5006330;28;20291;-58
2023/08/13 08:26:14;;;;;;;17.00;2.77;;;;;;;18.24;71.73;100720.81;4993025;28;20367;-58
2023/08/13 08:28:46;;;;;;;10.43;1.90;;;;;;;18.37;72.64;100756.44;5003685;28;20415;-57
2023/08/13 08:31:16;;;;;;;7.57;1.50;;;;;;;18.15;73.77;100763.53;5009288;28;20809;-58
2023/08/13 08:33:47;;;;;;;7.60;2.00;;;;;;;17.96;74.54;100745.72;5011348;28;20295;-57
2023/08/13 08:36:17;;;;;;;11.67;1.83;;;;;;;17.97;75.15;100765.97;5013566;28;20341;-59
2023/08/13 08:38:48;;;;;;;15.67;2.30;;;;;;;17.94;75.99;100766.06;5022500;28;20271;-59
2023/08/13 08:41:22;;;;;;;7.73;2.17;;;;;;;17.55;76.24;100721.72;4997301;28;20315;-58
2023/08/13 08:43:55;;;;;;;6.97;2.30;;;;;;;17.81;77.16;100780.69;5009407;28;20283;-58
2023/08/13 08:46:29;;;;;;;13.80;2.40;;;;;;;17.98;78.21;100783.53;5018760;28;20288;-58
2023/08/13 08:49:01;;;;;;;9.47;2.77;;;;;;;17.95;77.51;100786.31;4993177;28;20284;-59
2023/08/13 08:51:32;;;;;;;13.67;4.03;;;;;;;17.89;77.21;100789.19;5003513;28;20387;-58
2023/08/13 08:54:04;;;;;;;6.63;2.37;;;;;;;17.73;77.92;100790.66;4994282;28;20384;-58
2023/08/13 08:56:35;;;;;;;9.80;1.80;;;;;;;17.74;78.16;100780.00;5003870;28;20315;-58
2023/08/13 08:59:07;;;;;;;7.20;2.50;;;;;;;17.82;78.11;100778.00;4993122;28;20614;-58
2023/08/13 09:01:38;;;;;;;5.57;1.90;;;;;;;17.84;78.33;100780.56;5003409;28;20449;-58
2023/08/13 09:04:14;;;;;;;10.10;2.70;;;;;;;17.84;78.12;100780.56;4994251;28;20295;-59
2023/08/13 09:06:58;;;;;;;9.60;2.10;;;;;;;17.91;78.17;100779.41;5002628;28;20315;-58
2023/08/13 09:09:31;;;;;;;7.80;1.97;;;;;;;17.95;77.94;100785.47;5009066;28;20576;-59
2023/08/13 09:12:05;;;;;;;7.07;2.23;;;;;;;17.94;77.53;100781.06;4993700;28;20375;-58
2023/08/13 09:18:05;;;;;;;11.33;2.20;;;;;;;17.42;79.82;100758.31;5010942;28;20280;-58
2023/08/13 09:20:46;;;;;;;;;;;;;;;17.60;79.27;100792.91;5021221;28;20715;-58
2023/08/13 09:23:36;;;;;;;13.93;2.47;;;;;;;17.66;79.45;100782.94;4997823;28;19929;-59
2023/08/13 09:26:18;;;;;;;14.57;2.40;;;;;;;17.63;79.48;100788.34;5011327;28;20280;-58
2023/08/13 09:29:14;;;;;;;12.67;3.30;;;;;;;17.63;80.48;100788.34;5006983;28;20296;-59
2023/08/13 09:31:57;;;;;;;7.37;1.83;;;;;;;17.61;80.34;100795.47;5011988;28;20727;-58
2023/08/13 09:34:49;;;;;;;12.87;2.23;;;;;;;17.53;81.18;100802.81;5007098;28;20938;-58
2023/08/13 09:37:35;;;;;;;9.23;2.53;;;;;;;17.40;80.71;100796.28;4992112;28;20280;-58
2023/08/13 09:40:12;;;;;;;9.77;1.97;;;;;;;17.18;80.14;100807.59;5011830;28;20378;-59
2023/08/13 09:42:47;;;;;;;8.83;1.60;;;;;;;17.05;80.44;100803.66;5022266;28;20676;-59
2023/08/13 09:45:21;;;;;;;12.13;2.23;;;;;;;16.85;80.21;100804.34;5005869;28;20315;-57
2023/08/13 09:47:58;;;;;;;5.53;1.80;;;;;;;16.71;79.60;100807.41;5020634;28;20405;-57
2023/08/13 09:50:34;;;;;;;7.53;2.00;;;;;;;16.37;80.42;100760.16;5015091;28;20623;-58
2023/08/13 09:53:12;;;;;;;6.33;1.70;;;;;;;16.59;80.27;100799.88;4995357;28;20360;-58
2023/08/13 09:55:52;;;;;;;6.03;1.73;;;;;;;16.65;80.69;100807.63;5015490;28;20607;-59
2023/08/13 09:58:24;;;;;;;9.03;2.60;;;;;;;16.56;78.88;100806.13;5021240;28;20742;-59
2023/08/13 10:00:58;;;;;;;5.17;1.90;;;;;;;16.63;78.33;100808.59;5019552;28;20282;-60
2023/08/13 10:03:35;;;;;;;6.70;2.43;;;;;;;16.52;78.38;100811.53;5029172;28;20738;-60
2023/08/13 10:06:06;;;;;;;8.17;2.23;;;;;;;16.48;78.52;100812.56;5022461;28;20742;-60
2023/08/13 10:08:39;;;;;;;13.80;2.50;;;;;;;16.41;79.80;100809.25;5033546;28;20340;-60
2023/08/13 10:11:10;;;;;;;8.30;2.57;;;;;;;16.29;82.16;100813.13;5018734;28;20280;-60
2023/08/13 10:13:46;;;;;;;12.90;2.33;;;;;;;16.12;83.97;100799.63;5023710;28;20682;-59
2023/08/13 10:16:37;;;;;;;7.97;1.83;;;;;;;16.00;85.14;100807.88;5002051;28;20310;-60
2023/08/13 10:19:11;;;;;;;10.27;2.10;;;;;;;15.89;86.23;100817.00;5022581;28;20309;-60
2023/08/13 10:22:03;;;;;;;10.80;2.58;;;;;;;15.87;86.85;100821.44;5032322;28;20284;-59
2023/08/13 10:24:44;;;;;;;11.27;2.67;;;;;;;15.81;87.24;100818.13;5030472;28;20114;-60
2023/08/13 10:27:24;;;;;;;7.47;1.93;;;;;;;15.83;88.27;100817.19;5012671;28;20362;-59
2023/08/13 10:30:07;;;;;;;8.23;2.07;;;;;;;15.53;88.92;100817.13;5018665;28;20280;-59
2023/08/13 10:32:50;;;;;;;13.30;2.73;;;;;;;15.51;89.52;100831.22;5027271;28;20294;-59
2023/08/13 10:35:34;;;;;;;6.90;1.93;;;;;;;15.61;90.39;100831.84;5022141;28;20275;-59
2023/08/13 10:38:06;;;;;;;12.07;2.47;;;;;;;15.60;89.76;100840.63;5023066;28;20279;-60
2023/08/13 10:41:02;;;;;;;9.67;1.90;;;;;;;15.60;89.87;100841.53;5051277;28;20353;-59
2023/08/13 10:44:01;;;;;;;8.50;2.27;;;;;;;15.63;90.51;100845.84;5051424;28;20311;-59
2023/08/13 10:46:50;;;;;;;9.33;2.83;;;;;;;15.68;91.17;100838.66;5022494;28;20387;-60
2023/08/13 10:49:23;;;;;;;6.65;2.85;;;;;;;15.72;90.70;100837.69;5002200;28;20269;-60
2023/08/13 10:52:01;;;;;;;12.57;2.73;;;;;;;15.73;89.12;100837.66;5020953;28;20113;-59
2023/08/13 10:54:34;;;;;;;9.70;2.80;;;;;;;15.58;85.43;100837.22;5031208;28;20267;-58
2023/08/13 10:57:24;;;;;;;5.97;2.50;;;;;;;15.65;79.41;100823.81;5021660;28;20302;-59
2023/08/13 10:59:56;;;;;;;6.17;1.97;;;;;;;15.78;78.29;100861.25;5012882;28;20640;-59
2023/08/13 11:02:36;;;;;;;10.10;2.20;;;;;;;15.42;84.96;100868.34;5005179;28;20867;-60
2023/08/13 11:05:17;;;;;;;8.67;2.00;;;;;;;15.13;88.08;100866.50;4990884;28;20273;-60
2023/08/13 11:08:32;;;;;;;8.38;2.97;;;;;;;14.94;90.63;100885.34;5000752;28;20373;-60
2023/08/13 11:11:31;;;;;;;9.17;2.40;;;;;;;14.79;93.04;100873.44;4988932;28;20050;-59
2023/08/13 11:14:04;;;;;;;6.97;1.97;;;;;;;14.71;93.80;100877.16;4984892;28;20280;-60
2023/08/13 11:16:36;;;;;;;8.00;2.40;;;;;;;14.63;94.84;100883.47;4997271;28;20693;-59
2023/08/13 11:19:08;;;;;;;8.63;2.23;;;;;;;14.53;95.84;100884.59;4987392;28;20298;-59
2023/08/13 11:21:40;;;;;;;10.00;2.47;;;;;;;14.52;96.56;100880.16;4997238;28;20288;-59
2023/08/13 11:24:15;;;;;;;7.00;2.30;;;;;;;14.46;97.28;100864.56;4986885;28;20930;-59
2023/08/13 11:26:48;;;;;;;11.63;2.67;;;;;;;14.22;97.70;100827.38;4997098;28;20488;-59
2023/08/13 11:29:23;;;;;;;10.00;2.60;;;;;;;14.39;98.09;100865.59;4986734;28;20762;-60
2023/08/13 11:31:56;;;;;;;6.47;2.47;;;;;;;14.38;98.34;100866.50;4987838;28;20639;-59
2023/08/13 11:34:28;;;;;;;14.93;3.10;;;;;;;14.33;99.00;100857.84;4997822;28;20276;-58
2023/08/13 11:37:00;;;;;;;8.03;2.50;;;;;;;14.30;99.37;100857.91;4985829;28;20747;-59
2023/08/13 11:39:34;;;;;;;11.30;3.10;;;;;;;14.30;99.85;100860.53;4997029;28;20280;-60
2023/08/13 11:42:12;;;;;;;7.77;3.00;;;;;;;14.24;100.00;100849.25;4987237;28;20290;-59
2023/08/13 11:44:44;;;;;;;7.17;2.30;;;;;;;14.24;100.00;100844.00;4997109;28;20284;-58
2023/08/13 11:47:24;;;;;;;11.30;3.13;;;;;;;14.04;100.00;100846.19;4986666;28;20735;-58
2023/08/13 11:49:58;;;;;;;11.27;2.63;;;;;;;13.97;100.00;100837.56;4987313;28;20703;-59
2023/08/13 11:52:32;;;;;;;9.97;2.37;;;;;;;14.14;100.00;100842.47;5000316;28;20285;-59
2023/08/13 11:55:06;;;;;;;12.50;2.57;;;;;;;14.24;100.00;100848.38;5008681;28;20287;-58